createdAt,value
2023-05-02T00:01:25.022Z,10.93
2023-05-02T00:02:58.744Z,10.95
2023-05-02T00:04:32.304Z,10.94
2023-05-02T00:06:05.876Z,10.97
2023-05-02T00:07:38.431Z,10.97
2023-05-02T00:09:11.781Z,10.92
2023-05-02T00:10:47.042Z,10.88
2023-05-02T00:12:20.483Z,10.89
2023-05-02T00:13:53.799Z,10.84
2023-05-02T00:15:27.549Z,10.78
2023-05-02T00:16:59.741Z,10.80
2023-05-02T00:18:33.412Z,10.72
2023-05-02T00:20:09.388Z,10.70
2023-05-02T00:21:42.592Z,10.70
2023-05-02T00:23:15.683Z,10.69
2023-05-02T00:24:49.139Z,10.70
2023-05-02T00:26:23.731Z,10.65
2023-05-02T00:27:56.885Z,10.62
2023-05-02T00:29:30.005Z,10.56
2023-05-02T00:31:03.512Z,10.54
2023-05-02T00:32:36.711Z,10.54
2023-05-02T00:34:09.897Z,10.41
2023-05-02T00:35:43.341Z,10.35
2023-05-02T00:37:16.904Z,10.35
2023-05-02T00:38:50.090Z,10.34
2023-05-02T00:40:23.235Z,10.30
2023-05-02T00:42:01.535Z,10.29
2023-05-02T00:43:35.181Z,10.25
2023-05-02T00:45:12.467Z,10.25
2023-05-02T00:46:44.976Z,10.20
2023-05-02T00:48:20.646Z,10.12
2023-05-02T00:49:53.964Z,10.02
2023-05-02T00:51:29.180Z,10.00
2023-05-02T00:53:03.909Z,10.04
2023-05-02T00:54:39.392Z,10.07
2023-05-02T00:56:12.784Z,10.03
2023-05-02T00:57:47.996Z,10.02
2023-05-02T00:59:20.694Z,10.01
2023-05-02T01:01:05.519Z,10.02
2023-05-02T01:02:50.010Z,10.05
2023-05-02T01:04:34.561Z,10.00
2023-05-02T01:06:21.145Z,9.99
2023-05-02T01:08:10.317Z,9.87
2023-05-02T01:09:58.908Z,9.83
2023-05-02T01:11:45.576Z,9.82
2023-05-02T01:13:27.572Z,9.82
2023-05-02T01:15:07.114Z,9.71
2023-05-02T01:16:42.293Z,9.69
2023-05-02T01:18:18.626Z,9.69
2023-05-02T01:19:56.364Z,9.66
2023-05-02T01:21:30.144Z,9.60
2023-05-02T01:23:11.935Z,9.62
2023-05-02T01:25:05.579Z,9.61
2023-05-02T01:26:56.200Z,9.61
2023-05-02T01:28:40.100Z,9.62
2023-05-02T01:30:17.133Z,9.63
2023-05-02T01:31:52.509Z,9.57
2023-05-02T01:33:29.662Z,9.48
2023-05-02T01:35:03.814Z,9.42
2023-05-02T01:36:39.299Z,9.29
2023-05-02T01:38:16.812Z,9.21
2023-05-02T01:39:52.429Z,9.15
2023-05-02T01:41:27.956Z,9.16
2023-05-02T01:43:05.180Z,9.14
2023-05-02T01:44:39.778Z,9.12
2023-05-02T01:46:15.655Z,9.11
2023-05-02T01:47:49.064Z,9.12
2023-05-02T01:49:25.859Z,9.14
2023-05-02T01:50:59.762Z,9.04
2023-05-02T01:52:33.579Z,9.06
2023-05-02T01:54:09.720Z,9.03
2023-05-02T01:55:46.256Z,9.03
2023-05-02T01:57:20.265Z,9.05
2023-05-02T01:58:56.829Z,9.04
2023-05-02T02:00:31.633Z,9.03
2023-05-02T02:02:07.741Z,9.08
2023-05-02T02:03:40.967Z,9.09
2023-05-02T02:05:15.280Z,9.14
2023-05-02T02:06:54.823Z,9.17
2023-05-02T02:08:27.601Z,9.13
2023-05-02T02:10:01.562Z,9.13
2023-05-02T02:11:38.692Z,9.11
2023-05-02T02:13:18.345Z,8.97
2023-05-02T02:14:59.051Z,8.93
2023-05-02T02:16:35.352Z,8.90
2023-05-02T02:18:14.072Z,8.90
2023-05-02T02:19:47.272Z,8.90
2023-05-02T02:21:23.566Z,8.94
2023-05-02T02:22:59.043Z,8.94
2023-05-02T02:24:33.934Z,8.91
2023-05-02T02:26:09.956Z,8.92
2023-05-02T02:27:44.143Z,8.90
2023-05-02T02:29:17.266Z,8.87
2023-05-02T02:30:49.536Z,8.87
2023-05-02T02:32:22.696Z,8.89
2023-05-02T02:33:57.629Z,8.88
2023-05-02T02:35:35.599Z,8.87
2023-05-02T02:37:17.817Z,8.83
2023-05-02T02:39:01.117Z,8.79
2023-05-02T02:40:43.201Z,8.75
2023-05-02T02:42:24.135Z,8.73
2023-05-02T02:44:05.800Z,8.66
2023-05-02T02:45:43.295Z,8.58
2023-05-02T02:47:23.033Z,8.58
2023-05-02T02:49:10.710Z,8.58
2023-05-02T02:50:54.724Z,8.54
2023-05-02T02:52:34.904Z,8.58
2023-05-02T02:54:25.717Z,8.55
2023-05-02T02:56:06.187Z,8.51
2023-05-02T02:57:49.208Z,8.41
2023-05-02T02:59:29.127Z,8.39
2023-05-02T03:01:04.990Z,8.30
2023-05-02T03:02:39.025Z,8.26
2023-05-02T03:04:17.400Z,8.25
2023-05-02T03:05:51.110Z,8.21
2023-05-02T03:07:24.455Z,8.22
2023-05-02T03:08:57.729Z,8.18
2023-05-02T03:10:35.552Z,8.14
2023-05-02T03:12:08.007Z,8.15
2023-05-02T03:13:43.526Z,8.16
2023-05-02T03:15:30.725Z,8.18
2023-05-02T03:17:04.640Z,8.19
2023-05-02T03:18:38.362Z,8.09
2023-05-02T03:20:13.064Z,8.13
2023-05-02T03:21:46.175Z,8.15
2023-05-02T03:23:24.748Z,8.19
2023-05-02T03:24:59.858Z,8.16
2023-05-02T03:26:33.450Z,8.17
2023-05-02T03:28:07.026Z,8.19
2023-05-02T03:29:41.616Z,8.20
2023-05-02T03:31:16.751Z,8.18
2023-05-02T03:32:50.301Z,8.24
2023-05-02T03:34:24.237Z,8.28
2023-05-02T03:35:59.311Z,8.32
2023-05-02T03:37:33.280Z,8.34
2023-05-02T03:39:07.805Z,8.38
2023-05-02T03:40:40.479Z,8.36
2023-05-02T03:42:17.402Z,8.34
2023-05-02T03:43:50.770Z,8.31
2023-05-02T03:45:26.590Z,8.29
2023-05-02T03:47:00.183Z,8.29
2023-05-02T03:48:34.619Z,8.25
2023-05-02T03:50:10.093Z,8.24
2023-05-02T03:51:44.807Z,8.19
2023-05-02T03:53:18.326Z,8.21
2023-05-02T03:54:58.800Z,8.23
2023-05-02T03:56:32.496Z,8.31
2023-05-02T03:58:17.438Z,8.40
2023-05-02T03:59:51.551Z,8.44
2023-05-02T04:01:32.865Z,8.53
2023-05-02T04:03:09.259Z,8.61
2023-05-02T04:04:47.671Z,8.65
2023-05-02T04:06:23.596Z,8.73
2023-05-02T04:08:07.597Z,8.70
2023-05-02T04:09:40.868Z,8.77
2023-05-02T04:11:17.195Z,8.81
2023-05-02T04:12:49.371Z,8.87
2023-05-02T04:14:24.173Z,8.96
2023-05-02T04:15:59.889Z,9.03
2023-05-02T04:17:36.851Z,9.09
2023-05-02T04:19:11.883Z,9.09
2023-05-02T04:20:45.906Z,9.10
2023-05-02T04:22:22.129Z,9.19
2023-05-02T04:24:00.880Z,9.28
2023-05-02T04:25:35.663Z,9.31
2023-05-02T04:27:10.318Z,9.36
2023-05-02T04:28:44.243Z,9.46
2023-05-02T04:30:21.069Z,9.51
2023-05-02T04:32:03.179Z,9.55
2023-05-02T04:33:37.752Z,9.63
2023-05-02T04:35:11.546Z,9.73
2023-05-02T04:36:46.889Z,9.76
2023-05-02T04:38:24.710Z,9.95
2023-05-02T04:39:58.587Z,10.17
2023-05-02T04:41:35.522Z,10.40
2023-05-02T04:43:12.548Z,10.57
2023-05-02T04:44:56.324Z,10.79
2023-05-02T04:46:29.691Z,11.16
2023-05-02T04:48:03.518Z,11.59
2023-05-02T04:49:36.944Z,12.07
2023-05-02T04:51:10.316Z,12.55
2023-05-02T04:52:43.647Z,13.02
2023-05-02T04:54:17.237Z,13.48
2023-05-02T04:55:52.324Z,14.01
2023-05-02T04:57:25.420Z,14.40
2023-05-02T04:59:02.368Z,14.75
2023-05-02T05:00:37.314Z,15.00
2023-05-02T05:02:12.909Z,15.34
2023-05-02T05:03:46.742Z,15.66
2023-05-02T05:05:22.379Z,15.85
2023-05-02T05:06:56.224Z,16.11
2023-05-02T05:08:31.627Z,16.36
2023-05-02T05:10:06.413Z,16.58
2023-05-02T05:11:48.045Z,16.85
2023-05-02T05:13:22.327Z,17.10
2023-05-02T05:14:57.357Z,17.33
2023-05-02T05:16:32.589Z,17.43
2023-05-02T05:18:05.907Z,17.60
2023-05-02T05:19:39.227Z,17.98
2023-05-02T05:21:13.104Z,18.21
2023-05-02T05:22:46.898Z,18.36
2023-05-02T05:24:20.901Z,18.47
2023-05-02T05:25:55.163Z,18.53
2023-05-02T05:27:29.870Z,18.57
2023-05-02T05:29:03.205Z,18.81
2023-05-02T05:30:43.287Z,19.31
2023-05-02T05:32:20.144Z,19.51
2023-05-02T05:33:53.788Z,19.80
2023-05-02T05:35:29.395Z,20.03
2023-05-02T05:37:05.909Z,20.30
2023-05-02T05:38:41.806Z,20.26
2023-05-02T05:40:19.300Z,20.27
2023-05-02T05:41:59.888Z,20.15
2023-05-02T05:43:38.034Z,20.51
2023-05-02T05:45:13.038Z,20.46
2023-05-02T05:46:46.782Z,20.62
2023-05-02T05:48:20.264Z,20.79
2023-05-02T05:49:55.150Z,21.05
2023-05-02T05:51:31.726Z,21.19
2023-05-02T05:53:06.581Z,21.15
2023-05-02T05:54:41.316Z,21.22
2023-05-02T05:56:15.575Z,21.03
2023-05-02T05:57:54.895Z,21.06
2023-05-02T05:59:29.778Z,21.25
2023-05-02T06:01:03.232Z,21.25
2023-05-02T06:02:36.643Z,21.41
2023-05-02T06:04:10.184Z,21.42
2023-05-02T06:05:47.358Z,21.76
2023-05-02T06:07:20.482Z,22.00
2023-05-02T06:08:53.808Z,21.97
2023-05-02T06:10:27.803Z,22.21
2023-05-02T06:12:03.332Z,22.31
2023-05-02T06:13:37.760Z,22.11
2023-05-02T06:15:12.966Z,21.85
2023-05-02T06:16:46.922Z,22.07
2023-05-02T06:18:20.422Z,22.39
2023-05-02T06:19:53.765Z,22.69
2023-05-02T06:21:27.837Z,23.08
2023-05-02T06:23:01.196Z,23.15
2023-05-02T06:24:34.787Z,23.40
2023-05-02T06:26:08.033Z,23.47
2023-05-02T06:27:41.279Z,23.50
2023-05-02T06:29:15.327Z,23.75
2023-05-02T06:30:58.394Z,23.88
2023-05-02T06:32:33.447Z,24.18
2023-05-02T06:34:07.517Z,24.21
2023-05-02T06:35:41.077Z,24.36
2023-05-02T06:37:14.398Z,24.45
2023-05-02T06:38:48.222Z,24.62
2023-05-02T06:40:21.430Z,24.64
2023-05-02T06:41:59.086Z,24.11
2023-05-02T06:43:34.057Z,24.18
2023-05-02T06:45:08.513Z,24.33
2023-05-02T06:46:43.258Z,24.52
2023-05-02T06:48:16.669Z,24.55
2023-05-02T06:49:50.083Z,24.94
2023-05-02T06:51:23.576Z,25.15
2023-05-02T06:52:57.053Z,25.57
2023-05-02T06:54:30.261Z,25.96
2023-05-02T06:56:03.550Z,26.13
2023-05-02T06:57:36.779Z,26.40
2023-05-02T06:59:10.510Z,26.55
2023-05-02T07:00:43.888Z,26.55
2023-05-02T07:02:18.566Z,26.29
2023-05-02T07:03:52.378Z,25.92
2023-05-02T07:05:25.782Z,25.85
2023-05-02T07:06:59.048Z,26.32
2023-05-02T07:08:32.403Z,26.26
2023-05-02T07:10:06.165Z,26.17
2023-05-02T07:11:39.393Z,26.13
2023-05-02T07:13:12.873Z,26.11
2023-05-02T07:14:47.019Z,25.91
2023-05-02T07:16:20.353Z,25.14
2023-05-02T07:17:55.090Z,24.74
2023-05-02T07:19:28.376Z,24.52
2023-05-02T07:21:02.351Z,24.15
2023-05-02T07:22:35.446Z,24.04
2023-05-02T07:24:08.717Z,24.18
2023-05-02T07:25:42.115Z,24.57
2023-05-02T07:27:15.336Z,24.86
2023-05-02T07:28:48.436Z,24.70
2023-05-02T07:30:21.706Z,24.89
2023-05-02T07:31:54.950Z,24.70
2023-05-02T07:33:29.599Z,24.74
2023-05-02T07:35:02.676Z,24.71
2023-05-02T07:36:35.973Z,25.00
2023-05-02T07:38:09.171Z,25.11
2023-05-02T07:39:42.309Z,25.14
2023-05-02T07:41:15.856Z,25.29
2023-05-02T07:42:50.918Z,25.12
2023-05-02T07:44:24.457Z,24.98
2023-05-02T07:45:57.774Z,24.94
2023-05-02T07:47:31.012Z,25.02
2023-05-02T07:49:05.818Z,25.09
2023-05-02T07:50:39.874Z,25.29
2023-05-02T07:52:13.136Z,25.29
2023-05-02T07:53:46.214Z,25.14
2023-05-02T07:55:19.681Z,25.09
2023-05-02T07:56:53.030Z,25.11
2023-05-02T07:58:26.491Z,25.35
2023-05-02T07:59:59.927Z,25.66
2023-05-02T08:01:33.446Z,25.76
2023-05-02T08:03:08.130Z,25.65
2023-05-02T08:04:43.081Z,25.31
2023-05-02T08:06:16.250Z,25.39
2023-05-02T08:07:49.636Z,25.50
2023-05-02T08:09:22.914Z,25.74
2023-05-02T08:10:56.262Z,25.69
2023-05-02T08:12:29.373Z,25.48
2023-05-02T08:14:03.067Z,25.28
2023-05-02T08:15:36.435Z,25.35
2023-05-02T08:17:09.701Z,25.58
2023-05-02T08:18:42.753Z,25.47
2023-05-02T08:20:17.513Z,25.59
2023-05-02T08:21:50.868Z,25.73
2023-05-02T08:23:24.144Z,26.00
2023-05-02T08:24:57.331Z,25.93
2023-05-02T08:26:30.798Z,25.93
2023-05-02T08:28:04.142Z,25.85
2023-05-02T08:29:37.542Z,25.96
2023-05-02T08:31:11.095Z,25.75
2023-05-02T08:32:44.410Z,25.75
2023-05-02T08:34:17.674Z,25.43
2023-05-02T08:35:53.182Z,25.30
2023-05-02T08:37:26.323Z,25.41
2023-05-02T08:38:59.726Z,25.46
2023-05-02T08:40:42.094Z,25.71
2023-05-02T08:42:16.743Z,25.39
2023-05-02T08:43:50.074Z,25.34
2023-05-02T08:45:24.668Z,25.42
2023-05-02T08:46:59.610Z,25.30
2023-05-02T08:48:33.790Z,25.33
2023-05-02T08:50:08.448Z,25.36
2023-05-02T08:51:45.769Z,25.37
2023-05-02T08:53:19.942Z,25.39
2023-05-02T08:54:54.775Z,25.30
2023-05-02T08:56:27.837Z,25.25
2023-05-02T08:58:01.551Z,25.41
2023-05-02T08:59:34.881Z,25.59
2023-05-02T09:01:14.934Z,25.73
2023-05-02T09:02:59.577Z,25.83
2023-05-02T09:04:34.047Z,25.97
2023-05-02T09:06:09.409Z,26.27
2023-05-02T09:07:49.029Z,25.98
2023-05-02T09:09:22.221Z,25.69
2023-05-02T09:10:56.255Z,25.38
2023-05-02T09:12:29.616Z,25.51
2023-05-02T09:14:04.557Z,25.66
2023-05-02T09:15:37.740Z,25.60
2023-05-02T09:17:11.299Z,25.47
2023-05-02T09:18:45.870Z,25.64
2023-05-02T09:20:19.098Z,25.85
2023-05-02T09:21:52.304Z,25.44
2023-05-02T09:23:35.633Z,25.36
2023-05-02T09:25:09.648Z,25.32
2023-05-02T09:26:43.187Z,25.41
2023-05-02T09:28:16.355Z,25.50
2023-05-02T09:29:49.651Z,25.52
2023-05-02T09:33:02.589Z,25.36
2023-05-02T09:34:37.502Z,25.60
2023-05-02T09:36:14.638Z,25.36
2023-05-02T09:37:47.903Z,25.65
2023-05-02T09:39:25.945Z,25.41
2023-05-02T09:40:59.448Z,25.44
2023-05-02T09:42:33.034Z,25.65
2023-05-02T09:44:11.017Z,25.77
2023-05-02T09:45:44.302Z,25.83
2023-05-02T09:47:27.658Z,25.65
2023-05-02T09:49:01.020Z,25.49
2023-05-02T09:50:35.700Z,25.16
2023-05-02T09:52:12.362Z,25.07
2023-05-02T09:53:46.581Z,24.72
2023-05-02T09:55:23.332Z,24.64
2023-05-02T09:56:57.598Z,24.48
2023-05-02T09:58:32.098Z,24.31
2023-05-02T10:00:06.317Z,24.23
2023-05-02T10:01:46.343Z,23.98
2023-05-02T10:03:21.454Z,24.13
2023-05-02T10:04:58.346Z,24.32
2023-05-02T10:06:33.871Z,24.24
2023-05-02T10:08:08.028Z,24.25
2023-05-02T10:09:45.564Z,24.32
2023-05-02T10:11:21.653Z,24.50
2023-05-02T10:12:55.767Z,24.15
2023-05-02T10:14:29.844Z,24.10
2023-05-02T10:16:04.616Z,24.08
2023-05-02T10:17:43.202Z,24.07
2023-05-02T10:19:24.692Z,24.08
2023-05-02T10:20:59.968Z,24.23
2023-05-02T10:22:35.539Z,24.15
2023-05-02T10:24:09.162Z,24.17
2023-05-02T10:25:42.702Z,24.08
2023-05-02T10:27:17.941Z,23.94
2023-05-02T10:28:51.641Z,24.00
2023-05-02T10:30:25.420Z,23.93
2023-05-02T10:31:59.584Z,23.78
2023-05-02T10:33:35.373Z,23.93
2023-05-02T10:35:09.432Z,24.15
2023-05-02T10:36:42.752Z,24.24
2023-05-02T10:38:19.351Z,24.32
2023-05-02T10:39:52.729Z,24.27
2023-05-02T10:41:29.204Z,24.25
2023-05-02T10:43:05.995Z,24.24
2023-05-02T10:44:41.304Z,24.25
2023-05-02T10:46:34.681Z,24.42
2023-05-02T10:48:18.816Z,24.43
2023-05-02T10:49:53.759Z,24.64
2023-05-02T10:51:29.861Z,24.56
2023-05-02T10:53:24.338Z,24.43
2023-05-02T10:55:20.145Z,24.46
2023-05-02T10:57:08.301Z,24.37
2023-05-02T10:58:44.146Z,24.43
2023-05-02T11:00:23.085Z,24.48
2023-05-02T11:01:56.322Z,24.54
2023-05-02T11:03:57.835Z,24.34
2023-05-02T11:05:31.378Z,24.26
2023-05-02T11:07:20.262Z,24.21
2023-05-02T11:08:53.516Z,24.27
2023-05-02T11:10:28.780Z,24.31
2023-05-02T11:12:04.867Z,24.28
2023-05-02T11:13:51.832Z,24.35
2023-05-02T11:15:57.289Z,24.33
2023-05-02T11:18:03.086Z,24.35
2023-05-02T11:20:27.645Z,24.23
2023-05-02T11:22:34.154Z,24.28
2023-05-02T11:24:38.787Z,24.18
2023-05-02T11:26:23.464Z,24.00
2023-05-02T11:27:57.158Z,24.07
2023-05-02T11:29:56.819Z,24.07
2023-05-02T11:32:03.058Z,24.26
2023-05-02T11:33:36.464Z,24.31
2023-05-02T11:35:09.778Z,24.24
2023-05-02T11:36:43.427Z,24.26
2023-05-02T11:38:18.490Z,24.35
2023-05-02T11:39:51.922Z,24.27
2023-05-02T11:41:25.110Z,24.37
2023-05-02T11:43:00.757Z,24.51
2023-05-02T11:44:33.847Z,24.62
2023-05-02T11:46:08.751Z,24.56
2023-05-02T11:47:42.677Z,24.51
2023-05-02T11:49:16.561Z,24.60
2023-05-02T11:50:51.013Z,24.58
2023-05-02T11:52:25.185Z,24.48
2023-05-02T11:53:58.344Z,24.51
2023-05-02T11:55:31.695Z,24.56
2023-05-02T11:57:04.988Z,24.49
2023-05-02T11:58:38.624Z,24.40
2023-05-02T12:00:13.099Z,24.49
2023-05-02T12:01:53.603Z,24.58
2023-05-02T12:03:30.240Z,24.51
2023-05-02T12:05:06.144Z,24.38
2023-05-02T12:06:39.501Z,24.34
2023-05-02T12:08:20.141Z,24.24
2023-05-02T12:09:53.653Z,24.47
2023-05-02T12:11:28.994Z,24.64
2023-05-02T12:13:05.956Z,24.78
2023-05-02T12:14:39.210Z,24.89
2023-05-02T12:16:12.547Z,24.92
2023-05-02T12:17:52.495Z,24.75
2023-05-02T12:19:26.086Z,24.60
2023-05-02T12:20:59.342Z,24.64
2023-05-02T12:22:33.024Z,24.63
2023-05-02T12:24:06.877Z,24.55
2023-05-02T12:25:41.241Z,24.36
2023-05-02T12:27:16.044Z,24.22
2023-05-02T12:28:54.815Z,24.31
2023-05-02T12:30:29.311Z,24.27
2023-05-02T12:32:02.557Z,24.41
2023-05-02T12:33:44.795Z,24.48
2023-05-02T12:35:23.963Z,24.48
2023-05-02T12:36:57.957Z,24.39
2023-05-02T12:38:31.101Z,24.28
2023-05-02T12:40:05.158Z,24.16
2023-05-02T12:41:43.800Z,24.13
2023-05-02T12:43:17.774Z,24.12
2023-05-02T12:44:53.372Z,24.08
2023-05-02T12:46:28.331Z,24.10
2023-05-02T12:48:02.214Z,24.15
2023-05-02T12:49:50.268Z,23.96
2023-05-02T12:51:24.371Z,24.05
2023-05-02T12:52:59.383Z,24.10
2023-05-02T12:54:32.535Z,24.08
2023-05-02T12:56:06.778Z,24.16
2023-05-02T12:57:39.897Z,24.07
2023-05-02T12:59:27.998Z,23.90
2023-05-02T13:01:01.150Z,23.82
2023-05-02T13:02:34.786Z,23.93
2023-05-02T13:04:07.955Z,24.03
2023-05-02T13:05:42.613Z,24.17
2023-05-02T13:07:15.697Z,24.16
2023-05-02T13:08:49.299Z,24.19
2023-05-02T13:10:22.404Z,24.34
2023-05-02T13:11:55.589Z,24.28
2023-05-02T13:13:29.384Z,24.26
2023-05-02T13:15:02.902Z,24.30
2023-05-02T13:16:37.276Z,24.44
2023-05-02T13:18:10.858Z,24.52
2023-05-02T13:19:50.618Z,24.36
2023-05-02T13:21:29.166Z,24.27
2023-05-02T13:23:02.282Z,24.27
2023-05-02T13:24:35.530Z,24.31
2023-05-02T13:26:09.067Z,24.33
2023-05-02T13:27:42.681Z,24.43
2023-05-02T13:29:15.977Z,24.17
2023-05-02T13:30:49.440Z,24.11
2023-05-02T13:32:22.942Z,24.09
2023-05-02T13:33:56.264Z,24.09
2023-05-02T13:35:29.328Z,24.11
2023-05-02T13:37:04.057Z,24.22
2023-05-02T13:38:37.161Z,24.28
2023-05-02T13:40:11.890Z,24.32
2023-05-02T13:41:45.006Z,24.27
2023-05-02T13:43:18.234Z,24.31
2023-05-02T13:44:51.346Z,24.37
2023-05-02T13:46:24.780Z,24.39
2023-05-02T13:47:57.976Z,24.25
2023-05-02T13:49:31.234Z,24.07
2023-05-02T13:51:04.531Z,24.01
2023-05-02T13:52:39.656Z,24.22
2023-05-02T13:54:12.738Z,24.37
2023-05-02T13:55:46.171Z,24.32
2023-05-02T13:57:19.293Z,24.32
2023-05-02T13:58:52.823Z,24.40
2023-05-02T14:00:28.112Z,24.38
2023-05-02T14:02:01.418Z,24.41
2023-05-02T14:03:34.637Z,24.35
2023-05-02T14:05:09.141Z,24.38
2023-05-02T14:06:42.337Z,24.34
2023-05-02T14:08:18.571Z,24.27
2023-05-02T14:09:51.708Z,24.14
2023-05-02T14:11:25.163Z,24.08
2023-05-02T14:12:58.298Z,24.17
2023-05-02T14:14:31.502Z,24.14
2023-05-02T14:16:05.124Z,24.13
2023-05-02T14:17:39.128Z,23.95
2023-05-02T14:19:12.534Z,23.83
2023-05-02T14:20:45.937Z,23.82
2023-05-02T14:22:19.076Z,23.75
2023-05-02T14:23:53.938Z,23.67
2023-05-02T14:25:27.065Z,23.69
2023-05-02T14:27:01.515Z,23.69
2023-05-02T14:28:35.287Z,23.69
2023-05-02T14:30:09.978Z,23.72
2023-05-02T14:31:43.119Z,23.59
2023-05-02T14:33:16.579Z,23.54
2023-05-02T14:34:49.733Z,23.43
2023-05-02T14:36:23.577Z,23.32
2023-05-02T14:37:56.876Z,23.33
2023-05-02T14:39:31.582Z,23.39
2023-05-02T14:41:05.848Z,23.37
2023-05-02T14:42:39.625Z,23.46
2023-05-02T14:44:12.692Z,23.50
2023-05-02T14:45:46.042Z,23.53
2023-05-02T14:47:19.500Z,23.54
2023-05-02T14:48:53.128Z,23.54
2023-05-02T14:50:26.314Z,23.54
2023-05-02T14:51:59.533Z,23.35
2023-05-02T14:53:32.814Z,23.35
2023-05-02T14:55:09.007Z,23.35
2023-05-02T14:56:42.396Z,23.40
2023-05-02T14:58:20.737Z,23.42
2023-05-02T14:59:54.203Z,23.26
2023-05-02T15:01:27.696Z,23.19
2023-05-02T15:03:01.823Z,23.14
2023-05-02T15:04:35.808Z,23.13
2023-05-02T15:06:09.540Z,23.22
2023-05-02T15:07:43.067Z,23.24
2023-05-02T15:09:16.284Z,23.35
2023-05-02T15:10:50.856Z,23.41
2023-05-02T15:12:24.719Z,23.45
2023-05-02T15:13:59.484Z,23.40
2023-05-02T15:15:32.884Z,23.45
2023-05-02T15:17:06.210Z,23.40
2023-05-02T15:18:40.103Z,23.40
2023-05-02T15:20:14.275Z,23.37
2023-05-02T15:21:47.389Z,23.40
2023-05-02T15:23:20.630Z,23.42
2023-05-02T15:24:54.133Z,23.39
2023-05-02T15:26:28.807Z,23.45
2023-05-02T15:28:04.679Z,23.50
2023-05-02T15:29:37.989Z,23.48
2023-05-02T15:31:11.328Z,23.48
2023-05-02T15:32:44.673Z,23.45
2023-05-02T15:34:17.857Z,23.39
2023-05-02T15:35:55.626Z,23.35
2023-05-02T15:37:28.933Z,23.33
2023-05-02T15:39:02.463Z,23.36
2023-05-02T15:40:35.658Z,23.40
2023-05-02T15:42:10.954Z,23.34
2023-05-02T15:43:44.620Z,23.10
2023-05-02T15:45:18.032Z,23.02
2023-05-02T15:46:51.177Z,22.99
2023-05-02T15:48:24.894Z,22.97
2023-05-02T15:49:58.590Z,22.94
2023-05-02T15:51:32.066Z,22.92
2023-05-02T15:53:05.547Z,22.97
2023-05-02T15:54:39.399Z,23.01
2023-05-02T15:56:13.459Z,23.03
2023-05-02T15:57:51.800Z,23.04
2023-05-02T15:59:25.049Z,23.03
2023-05-02T16:00:58.346Z,22.87
2023-05-02T16:02:31.700Z,22.84
2023-05-02T16:04:07.133Z,22.76
2023-05-02T16:05:40.667Z,22.70
2023-05-02T16:07:13.978Z,22.74
2023-05-02T16:08:47.276Z,22.73
2023-05-02T16:10:20.710Z,22.58
2023-05-02T16:11:53.845Z,22.58
2023-05-02T16:13:28.668Z,22.53
2023-05-02T16:15:04.021Z,22.41
2023-05-02T16:16:37.679Z,22.37
2023-05-02T16:18:11.153Z,22.42
2023-05-02T16:19:44.440Z,22.41
2023-05-02T16:21:18.226Z,22.40
2023-05-02T16:22:51.552Z,22.36
2023-05-02T16:24:24.738Z,22.30
2023-05-02T16:25:58.809Z,22.25
2023-05-02T16:27:32.169Z,22.17
2023-05-02T16:29:07.107Z,22.15
2023-05-02T16:30:40.222Z,21.99
2023-05-02T16:32:13.605Z,21.93
2023-05-02T16:33:47.499Z,21.90
2023-05-02T16:35:21.100Z,21.86
2023-05-02T16:36:54.665Z,21.78
2023-05-02T16:38:27.841Z,21.77
2023-05-02T16:40:02.209Z,21.76
2023-05-02T16:41:36.406Z,21.72
2023-05-02T16:43:09.760Z,21.72
2023-05-02T16:44:44.354Z,21.68
2023-05-02T16:46:18.120Z,21.64
2023-05-02T16:47:51.705Z,21.56
2023-05-02T16:49:24.879Z,21.53
2023-05-02T16:50:58.176Z,21.46
2023-05-02T16:52:31.803Z,21.45
2023-05-02T16:54:05.334Z,21.44
2023-05-02T16:55:38.578Z,21.42
2023-05-02T16:57:12.081Z,21.33
2023-05-02T16:58:46.091Z,21.27
2023-05-02T17:00:21.457Z,21.20
2023-05-02T17:01:57.219Z,21.14
2023-05-02T17:03:30.503Z,21.12
2023-05-02T17:05:03.890Z,21.10
2023-05-02T17:06:37.335Z,21.06
2023-05-02T17:08:11.095Z,21.02
2023-05-02T17:09:44.742Z,20.99
2023-05-02T17:11:18.535Z,20.99
2023-05-02T17:12:51.869Z,20.96
2023-05-02T17:14:24.961Z,20.92
2023-05-02T17:15:59.519Z,20.87
2023-05-02T17:17:32.845Z,20.85
2023-05-02T17:19:06.677Z,20.80
2023-05-02T17:20:39.899Z,20.75
2023-05-02T17:22:15.886Z,20.70
2023-05-02T17:23:49.218Z,20.64
2023-05-02T17:25:22.537Z,20.62
2023-05-02T17:26:55.677Z,20.60
2023-05-02T17:28:28.833Z,20.54
2023-05-02T17:30:02.487Z,20.51
2023-05-02T17:31:38.078Z,20.48
2023-05-02T17:33:11.713Z,20.49
2023-05-02T17:34:45.094Z,20.41
2023-05-02T17:36:18.461Z,20.38
2023-05-02T17:37:50.735Z,20.31
2023-05-02T17:39:24.016Z,20.25
2023-05-02T17:40:57.154Z,20.17
2023-05-02T17:42:30.574Z,20.08
2023-05-02T17:44:05.084Z,19.95
2023-05-02T17:45:39.497Z,19.86
2023-05-02T17:47:14.317Z,19.78
2023-05-02T17:48:48.078Z,19.67
2023-05-02T17:50:21.709Z,19.59
2023-05-02T17:51:55.391Z,19.48
2023-05-02T17:53:31.432Z,19.31
2023-05-02T17:55:05.134Z,19.14
2023-05-02T17:56:38.408Z,19.00
2023-05-02T17:58:11.496Z,18.88
2023-05-02T17:59:44.706Z,18.81
2023-05-02T18:01:18.347Z,18.79
2023-05-02T18:02:54.222Z,18.75
2023-05-02T18:04:30.340Z,18.72
2023-05-02T18:06:03.684Z,18.73
2023-05-02T18:07:37.144Z,18.70
2023-05-02T18:09:10.410Z,18.61
2023-05-02T18:10:44.411Z,18.64
2023-05-02T18:12:17.735Z,18.65
2023-05-02T18:13:51.536Z,18.58
2023-05-02T18:15:24.892Z,18.58
2023-05-02T18:16:58.120Z,18.57
2023-05-02T18:18:33.120Z,18.54
2023-05-02T18:20:07.416Z,18.46
2023-05-02T18:21:40.951Z,18.47
2023-05-02T18:23:14.119Z,18.42
2023-05-02T18:24:47.416Z,18.38
2023-05-02T18:26:20.740Z,18.35
2023-05-02T18:27:54.435Z,18.33
2023-05-02T18:29:27.731Z,18.28
2023-05-02T18:31:01.207Z,18.21
2023-05-02T18:32:35.278Z,18.15
2023-05-02T18:34:10.111Z,18.15
2023-05-02T18:35:47.526Z,18.09
2023-05-02T18:37:21.986Z,18.11
2023-05-02T18:38:55.961Z,18.06
2023-05-02T18:40:29.226Z,18.04
2023-05-02T18:42:04.261Z,17.95
2023-05-02T18:43:37.598Z,17.92
2023-05-02T18:45:11.615Z,17.86
2023-05-02T18:46:44.857Z,17.83
2023-05-02T18:48:17.944Z,17.76
2023-05-02T18:49:56.394Z,17.71
2023-05-02T18:51:30.800Z,17.71
2023-05-02T18:53:04.040Z,17.66
2023-05-02T18:54:37.196Z,17.67
2023-05-02T18:56:14.546Z,17.66
2023-05-02T18:57:47.821Z,17.62
2023-05-02T18:59:21.330Z,17.58
2023-05-02T19:00:54.521Z,17.57
2023-05-02T19:02:28.034Z,17.52
2023-05-02T19:04:02.344Z,17.47
2023-05-02T19:05:37.069Z,17.48
2023-05-02T19:07:10.234Z,17.43
2023-05-02T19:08:43.395Z,17.37
2023-05-02T19:10:16.931Z,17.34
2023-05-02T19:11:50.257Z,17.30
2023-05-02T19:13:23.420Z,17.28
2023-05-02T19:14:56.682Z,17.23
2023-05-02T19:16:30.415Z,17.21
2023-05-02T19:18:03.864Z,17.20
2023-05-02T19:19:36.944Z,17.16
2023-05-02T19:21:13.601Z,17.11
2023-05-02T19:22:47.733Z,17.07
2023-05-02T19:24:21.213Z,17.03
2023-05-02T19:25:54.353Z,16.98
2023-05-02T19:27:27.848Z,16.94
2023-05-02T19:29:01.292Z,16.94
2023-05-02T19:30:34.785Z,16.94
2023-05-02T19:32:08.153Z,16.92
2023-05-02T19:33:43.763Z,16.87
2023-05-02T19:35:18.436Z,16.89
2023-05-02T19:36:53.096Z,16.88
2023-05-02T19:38:26.144Z,16.83
2023-05-02T19:39:59.453Z,16.84
2023-05-02T19:41:32.825Z,16.86
2023-05-02T19:43:06.173Z,16.80
2023-05-02T19:44:39.258Z,16.79
2023-05-02T19:46:12.716Z,16.82
2023-05-02T19:47:46.309Z,16.82
2023-05-02T19:49:19.518Z,16.84
2023-05-02T19:50:52.650Z,16.80
2023-05-02T19:52:27.270Z,16.80
2023-05-02T19:54:00.996Z,16.74
2023-05-02T19:55:34.215Z,16.79
2023-05-02T19:57:07.300Z,16.78
2023-05-02T19:58:40.655Z,16.80
2023-05-02T20:00:15.237Z,16.77
2023-05-02T20:01:48.746Z,16.70
2023-05-02T20:03:22.523Z,16.67
2023-05-02T20:04:56.072Z,16.67
2023-05-02T20:06:31.633Z,16.63
2023-05-02T20:08:06.423Z,16.63
2023-05-02T20:09:39.908Z,16.63
2023-05-02T20:11:13.086Z,16.54
2023-05-02T20:12:47.374Z,16.49
2023-05-02T20:14:20.573Z,16.48
2023-05-02T20:15:54.477Z,16.50
2023-05-02T20:17:27.692Z,16.49
2023-05-02T20:19:01.075Z,16.46
2023-05-02T20:20:34.393Z,16.41
2023-05-02T20:22:07.902Z,16.34
2023-05-02T20:23:43.616Z,16.24
2023-05-02T20:25:17.146Z,16.19
2023-05-02T20:26:50.408Z,16.15
2023-05-02T20:28:24.951Z,16.14
2023-05-02T20:29:58.395Z,16.15
2023-05-02T20:31:32.127Z,16.17
2023-05-02T20:33:14.932Z,16.19
2023-05-02T20:34:49.196Z,16.16
2023-05-02T20:36:22.630Z,16.09